Airport Name : Camiri

Other Name : Camiri

ICAO : SLCA

IATA : CAM

FAA :

Latitude : -20

Longitude : -63.317

Country : Bolivia

Local Date and Time : 1/22/2018 12:05:00 PM

 

TAF (Terminal Aerodrome Forecast)

 

METAR (METeorological Aerodrome Report)

SLCA 221500Z 00000KT 9999 BKN033 28/20 Q1011

SLCA 221400Z 00000KT 9999 SCT033 27/21 Q1011

SLCA 221300Z 00000KT 9999 SCT033 25/21 Q1011